Latest Weather Observations for Cleve Airport

IDS60801

Issued at 1:01 pm CDT Wednesday 10 February 2016 (issued every 30 minutes, with the page automatically refreshed every 10 minutes)

About weather observations | Map of weather stations | Latest weather observations for SA | Other Formats
Station Details ID: 018116 Name: CLEVE AERODROME Lat: -33.71 Lon: 136.50 Height: 175.0 m
Data from the previous 72 hours. | See also: Recent months at Cleve Airport
Date/Time
CDT
Temp
°C
App
Temp
°C
Dew
Point
Rel
Hum
%
Delta-T
°C
Wind Press
QNH
hPa
Press
MSL
hPa
Rain
since 9 am
mm
Dir
 
Spd
km/h
Gust
km/h
Spd
kts
Gust
kts
10/01:00pm 24.7 21.9 14.2 52 6.2 SE 22 32 12 17 1015.4 - 0.0
10/12:30pm 23.6 20.5 14.6 57 5.4 SSE 24 33 13 18 1015.6 - 0.0
10/12:00pm 24.0 21.4 15.0 57 5.4 SSE 22 37 12 20 1016.0 1015.3 0.0
10/11:30am 23.5 20.7 15.3 60 4.9 SSE 24 33 13 18 1016.0 - 0.0
10/11:00am 23.8 22.1 14.8 57 5.4 SSE 17 26 9 14 1015.9 - 0.0
10/10:30am 22.6 20.9 15.7 65 4.2 SSE 19 24 10 13 1016.0 - 0.0
10/10:00am 21.6 21.2 16.1 71 3.3 SE 13 19 7 10 1015.8 - 0.0
10/09:30am 20.4 19.6 16.0 76 2.7 ESE 15 20 8 11 1016.0 - 0.0
10/09:00am 19.4 18.3 16.4 83 1.8 SE 17 20 9 11 1016.0 1015.3 0.0
10/08:30am 18.7 18.2 17.0 90 1.0 SE 15 20 8 11 1016.1 - 0.0
10/08:00am 18.2 18.2 17.2 94 0.6 ESE 13 17 7 9 1015.5 - 0.0
10/07:30am 17.7 18.5 17.4 98 0.2 E 9 13 5 7 1015.3 - 0.0
10/07:00am 17.4 18.5 17.2 99 0.1 E 7 11 4 6 1015.4 - 0.0
10/06:30am 17.3 18.0 17.1 99 0.1 E 9 13 5 7 1015.3 - 0.0
10/06:00am 16.9 17.8 16.7 99 0.1 E 7 9 4 5 1015.1 1014.4 0.0
10/05:30am 16.4 17.3 16.1 98 0.2 ESE 6 7 3 4 1015.0 - 0.0
10/05:00am 16.6 17.6 16.3 98 0.2 E 6 7 3 4 1014.9 - 0.0
10/04:30am 16.1 16.7 15.8 98 0.2 E 7 7 4 4 1014.8 - 0.0
10/04:00am 15.5 16.0 15.0 97 0.3 E 6 7 3 4 1015.0 - 0.0
10/03:30am 15.8 16.1 15.0 95 0.5 E 7 7 4 4 1015.0 - 0.0
10/03:00am 15.9 15.9 15.1 95 0.5 E 9 11 5 6 1014.8 1014.1 0.0
10/02:30am 16.3 15.6 15.3 94 0.6 E 13 13 7 7 1015.3 - 0.0
10/02:00am 16.5 16.2 15.5 94 0.6 E 11 13 6 7 1015.6 - 0.0
10/01:30am 16.1 15.9 14.8 92 0.8 E 9 11 5 6 1015.9 - 0.0
10/01:00am 17.4 17.8 16.3 93 0.7 E 9 11 5 6 1016.2 - 0.0
10/12:30am 16.9 17.0 15.6 92 0.8 E 9 9 5 5 1016.4 - 0.0
10/12:00am 17.8 18.7 16.5 92 0.8 E 7 9 4 5 1016.6 1015.9 0.0
 
Date/Time
CDT
Temp
°C
App
Temp
°C
Dew
Point
Rel
Hum
%
Delta-T
°C
Wind Press
QNH
hPa
Press
MSL
hPa
Rain
since 9 am
mm
Dir
 
Spd
km/h
Gust
km/h
Spd
kts
Gust
kts
09/11:30pm 17.7 18.6 16.2 91 0.9 ENE 6 7 3 4 1016.7 - 0.0
09/11:00pm 17.7 18.6 16.0 90 1.0 ENE 6 7 3 4 1016.7 - 0.0
09/10:30pm 17.7 18.4 15.5 87 1.3 ENE 6 6 3 3 1016.8 - 0.0
09/10:00pm 18.7 19.5 15.8 83 1.7 ESE 6 9 3 5 1016.8 - 0.0
09/09:30pm 19.5 19.4 16.0 80 2.1 SSE 11 15 6 8 1016.6 - 0.0
09/09:00pm 20.5 20.1 15.3 72 3.1 SE 11 15 6 8 1016.4 1015.7 0.0
09/08:30pm 21.8 20.7 15.2 66 3.9 SSE 15 19 8 10 1016.3 - 0.0
09/08:00pm 23.5 21.3 14.5 57 5.4 SSE 19 24 10 13 1016.1 - 0.0
09/07:30pm 24.5 21.9 13.7 51 6.4 SE 20 26 11 14 1015.9 - 0.0
09/07:00pm 25.3 22.0 12.9 46 7.2 SE 22 30 12 16 1015.9 - 0.0
09/06:30pm 26.7 22.9 11.2 38 8.9 SE 22 30 12 16 1015.7 - 0.0
09/06:00pm 27.4 24.2 11.4 37 9.2 ESE 19 26 10 14 1015.4 1014.7 0.0
09/05:30pm 27.3 23.9 11.3 37 9.2 SE 20 28 11 15 1015.6 - 0.0
09/05:00pm 27.9 24.6 11.5 36 9.5 SSE 20 28 11 15 1015.8 - 0.0
09/04:30pm 27.8 24.9 13.0 40 8.8 SSE 20 28 11 15 1016.1 - 0.0
09/04:00pm 27.8 25.2 14.8 45 7.9 SSE 22 32 12 17 1016.4 - 0.0
09/03:30pm 27.3 24.9 14.3 45 7.8 SSE 20 32 11 17 1016.7 - 0.0
09/03:00pm 27.0 25.1 15.1 48 7.2 SSE 19 30 10 16 1017.0 1016.3 0.0
09/02:30pm 28.1 26.0 16.1 48 7.5 SE 22 28 12 15 1017.1 - 0.0
09/02:00pm 28.0 26.2 16.0 48 7.4 SSE 20 28 11 15 1017.3 - 0.0
09/01:30pm 27.2 25.9 15.9 50 7.0 SSE 17 24 9 13 1017.5 - 0.0
09/01:00pm 26.6 26.1 15.9 51 6.6 SSE 13 30 7 16 1017.7 - 0.0
09/12:30pm 27.2 25.2 15.6 49 7.1 SSE 20 30 11 16 1018.0 - 0.0
09/12:00pm 26.9 25.1 15.6 50 6.9 SSE 19 26 10 14 1018.4 1017.7 0.0
09/11:30am 25.9 24.8 15.3 52 6.5 ESE 15 20 8 11 1018.6 - 0.0
09/11:00am 25.8 25.0 15.2 52 6.4 ESE 13 24 7 13 1019.0 - 0.0
09/10:30am 24.0 22.8 15.0 57 5.4 ESE 15 22 8 12 1019.1 - 0.0
09/10:00am 22.5 21.4 15.4 64 4.3 ESE 15 22 8 12 1019.2 - 0.0
09/09:30am 21.4 20.5 15.9 71 3.3 ESE 15 22 8 12 1019.5 - 0.0
09/09:00am 20.3 19.0 15.9 76 2.6 ESE 17 22 9 12 1019.5 1018.8 0.0
09/08:30am 19.5 18.3 16.2 81 2.0 E 17 22 9 12 1019.4 - 0.0
09/08:00am 18.0 17.2 16.2 89 1.1 E 15 19 8 10 1019.4 - 0.0
09/07:30am 16.8 16.1 15.5 92 0.8 E 13 17 7 9 1019.4 - 0.0
09/07:00am 16.5 16.0 15.0 91 0.9 E 11 15 6 8 1019.3 - 0.0
09/06:30am 17.0 15.9 15.2 89 1.1 ESE 15 17 8 9 1019.2 - 0.0
09/06:00am 17.4 15.9 15.2 87 1.3 ESE 17 20 9 11 1019.2 1018.5 0.0
09/05:30am 17.6 16.1 15.2 86 1.4 ESE 17 22 9 12 1019.2 - 0.0
09/05:00am 17.5 15.9 15.1 86 1.4 ESE 17 22 9 12 1019.1 - 0.0
09/04:30am 17.5 15.6 15.1 86 1.4 ESE 19 22 10 12 1019.2 - 0.0
09/04:00am 17.4 15.8 15.0 86 1.4 ESE 17 22 9 12 1019.2 - 0.0
09/03:30am 17.3 15.6 14.6 84 1.6 ESE 17 22 9 12 1019.3 - 0.0
09/03:00am 17.3 15.2 14.8 85 1.5 ESE 19 24 10 13 1019.6 1018.9 0.0
09/02:30am 17.5 15.1 14.4 82 1.8 ESE 20 28 11 15 1019.9 - 0.0
09/02:00am 17.6 14.9 14.5 82 1.8 ESE 22 30 12 16 1020.1 - 0.0
09/01:30am 17.6 14.9 14.7 83 1.7 ESE 22 28 12 15 1020.5 - 0.0
09/01:00am 17.6 15.3 14.7 83 1.7 ESE 20 28 11 15 1020.8 - 0.0
09/12:30am 17.7 14.9 14.2 80 2.0 ESE 22 28 12 15 1021.2 - 0.0
09/12:00am 17.6 14.3 13.9 79 2.1 SE 24 32 13 17 1021.3 1020.6 0.0
 
Date/Time
CDT
Temp
°C
App
Temp
°C
Dew
Point
Rel
Hum
%
Delta-T
°C
Wind Press
QNH
hPa
Press
MSL
hPa
Rain
since 9 am
mm
Dir
 
Spd
km/h
Gust
km/h
Spd
kts
Gust
kts
08/11:30pm 17.5 15.0 14.0 80 2.0 SE 20 24 11 13 1021.6 - 0.0
08/11:00pm 17.1 15.1 13.8 81 1.9 SE 17 24 9 13 1021.8 - 0.0
08/10:30pm 17.2 15.2 13.9 81 1.9 SE 17 20 9 11 1021.7 - 0.0
08/10:00pm 17.4 15.4 13.9 80 2.0 SE 17 20 9 11 1021.7 - 0.0
08/09:30pm 17.7 15.3 13.8 78 2.2 SE 19 24 10 13 1021.4 - 0.0
08/09:00pm 18.1 15.6 14.0 77 2.4 SE 20 24 11 13 1021.2 1020.5 0.0
08/08:30pm 18.7 16.0 13.6 72 2.9 SE 20 28 11 15 1021.0 - 0.0
08/08:00pm 19.5 15.7 13.7 69 3.3 SE 26 33 14 18 1020.9 - 0.0
08/07:30pm 20.5 16.3 13.5 64 4.0 SE 28 39 15 21 1020.7 - 0.0
08/07:00pm 21.4 16.5 13.8 62 4.4 SE 32 37 17 20 1020.4 - 0.0
08/06:30pm 21.7 17.4 13.1 58 5.0 SE 28 35 15 19 1020.4 - 0.0
08/06:00pm 22.1 17.3 12.9 56 5.3 SSE 30 37 16 20 1020.5 1019.8 0.0
08/05:30pm 22.7 18.5 13.5 56 5.4 SSE 28 39 15 21 1020.5 - 0.0
08/05:00pm 22.8 18.1 13.3 55 5.5 SSE 30 39 16 21 1020.6 - 0.0
08/04:30pm 23.1 18.2 12.7 52 6.0 SSE 30 39 16 21 1020.8 - 0.0
08/04:18pm 23.5 19.1 12.8 51 6.2 SSE 28 46 15 25 1020.9 - 0.0
08/04:00pm 23.1 18.3 13.0 53 5.9 SSE 30 41 16 22 1021.0 - 0.0
08/03:30pm 23.5 19.1 12.8 51 6.2 SSE 28 39 15 21 1021.1 - 0.0
08/03:00pm 23.7 18.8 12.7 50 6.3 SSE 30 39 16 21 1021.4 1020.7 0.0
08/02:30pm 22.3 17.7 13.4 57 5.2 SSE 30 37 16 20 1021.7 - 0.0
08/02:00pm 22.8 17.9 12.7 53 5.8 SSE 30 39 16 21 1021.9 - 0.0
08/01:30pm 22.5 18.1 13.0 55 5.5 SE 28 41 15 22 1022.1 - 0.0
08/01:00pm 22.1 17.7 12.9 56 5.3 SSE 28 39 15 21 1022.4 - 0.0
08/12:30pm 21.9 17.1 13.0 57 5.1 SSE 30 52 16 28 1022.7 - 0.0
08/12:27pm 22.0 17.7 13.1 57 5.1 SSE 28 52 15 28 1022.6 - 0.0
08/12:00pm 22.2 17.2 13.5 57 5.0 SE 32 41 17 22 1022.9 1022.3 0.0
08/11:30am 21.5 16.6 13.7 61 4.5 SSE 32 43 17 23 1022.8 - 0.0
08/11:00am 20.8 16.5 13.3 62 4.3 SSE 28 37 15 20 1022.8 - 0.0
08/10:30am 21.2 16.8 12.9 59 4.8 SE 28 39 15 21 1022.9 - 0.0
08/10:00am 20.3 16.0 13.3 64 4.0 SE 28 41 15 22 1022.8 - 0.0
08/09:30am 19.3 14.9 12.8 66 3.7 SSE 28 35 15 19 1023.0 - 0.0
08/09:00am 19.1 14.8 13.1 68 3.4 SE 28 35 15 19 1022.8 1022.2 0.0
08/08:30am 18.5 14.5 12.9 70 3.2 SE 26 35 14 19 1022.6 - 0.0
08/08:00am 18.1 14.5 13.0 72 2.9 SE 24 32 13 17 1022.4 - 0.0
08/07:30am 17.8 15.0 13.3 75 2.6 SE 20 26 11 14 1022.2 - 0.0
08/07:00am 17.6 14.4 13.1 75 2.5 SE 22 30 12 16 1021.9 - 0.0
08/06:30am 17.5 14.3 13.2 76 2.4 SE 22 28 12 15 1021.6 - 0.0
08/06:00am 17.3 14.4 13.0 76 2.4 SE 20 28 11 15 1021.4 1020.7 0.0
08/05:30am 17.6 14.1 13.5 77 2.3 SE 24 30 13 16 1021.0 - 0.0
08/05:00am 17.5 14.8 13.6 78 2.2 SE 20 24 11 13 1020.9 - 0.0
08/04:30am 17.6 15.0 13.7 78 2.2 SE 20 26 11 14 1020.9 - 0.0
08/04:00am 17.7 15.2 14.0 79 2.1 SE 20 28 11 15 1021.0 - 0.0
08/03:30am 17.8 14.5 13.9 78 2.2 SE 24 30 13 16 1021.0 - 0.0
08/03:00am 17.8 15.0 14.3 80 2.0 SE 22 28 12 15 1021.2 1020.5 0.0
08/02:30am 17.8 14.7 14.5 81 1.9 SE 24 28 13 15 1021.2 - 0.0
08/02:00am 17.9 14.9 14.8 82 1.8 SE 24 30 13 16 1021.4 - 0.0
08/01:30am 18.3 14.9 14.8 80 2.0 SE 26 33 14 18 1021.6 - 0.0
08/01:00am 18.5 15.0 15.4 82 1.8 SE 28 33 15 18 1021.6 - 0.0
08/12:30am 18.7 15.7 15.8 83 1.7 SE 26 33 14 18 1021.5 - 0.0
08/12:00am 18.7 17.2 16.3 86 1.4 SE 19 28 10 15 1021.4 1020.7 0.0
 
Date/Time
CDT
Temp
°C
App
Temp
°C
Dew
Point
Rel
Hum
%
Delta-T
°C
Wind Press
QNH
hPa
Press
MSL
hPa
Rain
since 9 am
mm
Dir
 
Spd
km/h
Gust
km/h
Spd
kts
Gust
kts
07/11:30pm 18.4 18.5 16.6 89 1.1 SSE 11 15 6 8 1021.5 - 0.0
07/11:00pm 18.3 17.6 16.5 89 1.1 S 15 19 8 10 1021.6 - 0.0
07/10:30pm 17.8 17.3 16.0 89 1.1 SSE 13 17 7 9 1021.5 - 0.0
07/10:00pm 17.6 17.0 15.6 88 1.2 SSE 13 15 7 8 1021.3 - 0.0
07/09:30pm 17.6 16.5 15.2 86 1.4 S 15 17 8 9 1020.9 - 0.0
07/09:00pm 17.9 16.7 15.0 83 1.7 SSE 15 19 8 10 1020.6 1019.9 0.0
07/08:30pm 18.4 16.0 14.5 78 2.3 SSE 20 26 11 14 1020.3 - 0.0
07/08:00pm 19.4 16.3 14.4 73 2.9 SSE 24 28 13 15 1019.8 - 0.0
07/07:30pm 20.5 17.5 14.8 70 3.4 SSE 24 30 13 16 1019.3 - 0.0
07/07:00pm 21.7 18.6 14.6 64 4.2 SSE 24 33 13 18 1018.9 - 0.0
07/06:30pm 22.4 19.1 14.0 59 4.9 SSE 24 32 13 17 1018.6 - 0.0
07/06:00pm 22.9 19.7 13.1 54 5.7 SSE 22 32 12 17 1018.5 1017.8 0.0
07/05:30pm 23.5 19.8 12.8 51 6.2 SSE 24 32 13 17 1018.4 - 0.0
07/05:00pm 25.0 22.2 13.2 48 6.9 SSE 20 28 11 15 1018.4 - 0.0
07/04:30pm 24.0 20.6 12.6 49 6.6 SE 22 28 12 15 1018.4 - 0.0
07/04:00pm 23.4 20.3 13.3 53 5.9 SSE 22 30 12 16 1018.6 - 0.0
07/03:30pm 24.6 21.8 13.2 49 6.7 SSE 20 33 11 18 1018.7 - 0.0
07/03:00pm 24.7 21.6 13.3 49 6.7 SE 22 28 12 15 1018.7 1018.0 0.0
07/02:30pm 25.1 22.7 14.3 51 6.5 SSE 20 28 11 15 1018.8 - 0.0
07/02:00pm 24.5 21.9 13.7 51 6.4 SE 20 33 11 18 1018.9 - 0.0
07/01:30pm 23.8 21.3 13.4 52 6.1 S 19 28 10 15 1019.0 - 0.0

Other Formats:

Comma delimited format used in spreadsheet applications
http://www.bom.gov.au/fwo/IDS60801/IDS60801.94662.axf

JavaScript Object Notation format (JSON) in row-major order
http://www.bom.gov.au/fwo/IDS60801/IDS60801.94662.json